Sky Beauty — DSRI6 — position and weather

sailwx.info

Track history (hours):
 
Tides and Currents Weather Stations Pressure Air Temp Water Temp Dewpoint Dewpoint Depression Visibility Wind Speed Wind Dir Waves Ship Positions

Sky Beauty

Last reported at 2017-Sep-20 05:47 UTC. Time now 2017-Sep-21 17:47 UTC.
Position N 34°37' E 134°59'.

Length 92 m; draft 5.2 m.

Type: Cargo ship. MMSI: 441874000.

Date/timePositionNaut miles runAvg speedWind from/ knotsBaromVisibWave heightAir tempDewpointWater temp
2017-Sep-20 05:47N 34°37' E 134°59'2 7.2
2017-Sep-20 05:30N 34°37' E 135°01'3 6.7
2017-Sep-20 05:00N 34°36' E 135°05'510.7
2017-Sep-20 04:30N 34°37' E 135°12'4 8.3
2017-Sep-20 04:00N 34°39' E 135°15'3 5.0
2017-Sep-20 03:27N 34°42' E 135°13'0 0.0
2017-Sep-20 02:57N 34°42' E 135°13'0 0.0
2017-Sep-20 02:21N 34°42' E 135°13'0 0.0
2017-Sep-20 01:57N 34°42' E 135°13'0 0.0
2017-Sep-20 01:27N 34°42' E 135°13'0 0.0
2017-Sep-20 00:57N 34°42' E 135°13'0 0.0
2017-Sep-20 00:27N 34°42' E 135°13'0 0.0
2017-Sep-19 23:57N 34°42' E 135°13'0 0.0
2017-Sep-19 23:27N 34°42' E 135°13'0 0.0
2017-Sep-19 22:51N 34°42' E 135°13'0 0.0
2017-Sep-19 22:27N 34°42' E 135°13'0 0.0
2017-Sep-19 21:57N 34°42' E 135°13'0 0.0
2017-Sep-19 20:45N 34°42' E 135°13'0 0.0
2017-Sep-19 20:27N 34°42' E 135°13'0 0.0
2017-Sep-19 19:57N 34°42' E 135°13'0 0.0
2017-Sep-19 19:27N 34°42' E 135°13'0 0.0
2017-Sep-19 18:51N 34°42' E 135°13'0 0.0
2017-Sep-19 18:27N 34°42' E 135°13'0 0.0
2017-Sep-19 17:57N 34°42' E 135°13'0 0.0
2017-Sep-19 17:27N 34°42' E 135°13'0 0.0
2017-Sep-19 16:57N 34°42' E 135°13'0 0.0
2017-Sep-19 16:27N 34°42' E 135°13'0 0.0
2017-Sep-19 15:57N 34°42' E 135°13'0 0.0
2017-Sep-19 15:27N 34°42' E 135°13'0 0.0
2017-Sep-19 14:57N 34°42' E 135°13'0 0.0
2017-Sep-19 14:27N 34°42' E 135°13'0 0.0
2017-Sep-19 13:57N 34°42' E 135°13'0 0.0
2017-Sep-19 13:27N 34°42' E 135°13'0 0.0
2017-Sep-19 12:50N 34°42' E 135°13'0 0.0
2017-Sep-19 12:08N 34°42' E 135°13'0 0.0
2017-Sep-19 11:56N 34°42' E 135°13'0 0.0
2017-Sep-19 11:26N 34°42' E 135°13'0 0.0
2017-Sep-19 10:56N 34°42' E 135°13'0 0.0
2017-Sep-19 10:26N 34°42' E 135°13'0 0.0
2017-Sep-19 09:32N 34°42' E 135°13'0 0.1
2017-Sep-19 09:26N 34°42' E 135°13'0 0.0
2017-Sep-19 08:56N 34°42' E 135°13'0 0.0
2017-Sep-19 08:26N 34°42' E 135°13'0 0.0
2017-Sep-19 07:54N 34°42' E 135°13'0 0.0
2017-Sep-19 07:24N 34°42' E 135°13'0 1.0
2017-Sep-19 07:00N 34°41' E 135°13'4 7.4
2017-Sep-19 06:30N 34°38' E 135°16'611.9
2017-Sep-19 06:00N 34°36' E 135°10'713.4
2017-Sep-19 05:30N 34°37' E 135°02'  
2017-Sep-13 22:40N 33°57' E 134°54'  
Track history (hours):
 
Tides and Currents Weather Stations Pressure Air Temp Water Temp Dewpoint Dewpoint Depression Visibility Wind Speed Wind Dir Waves Ship Positions

Sky Beauty

Last reported at 2017-Sep-20 05:47 UTC. Time now 2017-Sep-21 17:47 UTC.
Position N 34°37' E 134°59'.

Length 92 m; draft 5.2 m.

Type: Cargo ship. MMSI: 441874000.

Date/timePositionNaut miles runAvg speedWind from/ knotsBaromVisibWave heightAir tempDewpointWater temp
2017-Sep-20 05:47N 34°37' E 134°59'2 7.2
2017-Sep-20 05:30N 34°37' E 135°01'3 6.7
2017-Sep-20 05:00N 34°36' E 135°05'510.7
2017-Sep-20 04:30N 34°37' E 135°12'4 8.3
2017-Sep-20 04:00N 34°39' E 135°15'3 5.0
2017-Sep-20 03:27N 34°42' E 135°13'0 0.0
2017-Sep-20 02:57N 34°42' E 135°13'0 0.0
2017-Sep-20 02:21N 34°42' E 135°13'0 0.0
2017-Sep-20 01:57N 34°42' E 135°13'0 0.0
2017-Sep-20 01:27N 34°42' E 135°13'0 0.0
2017-Sep-20 00:57N 34°42' E 135°13'0 0.0
2017-Sep-20 00:27N 34°42' E 135°13'0 0.0
2017-Sep-19 23:57N 34°42' E 135°13'0 0.0
2017-Sep-19 23:27N 34°42' E 135°13'0 0.0
2017-Sep-19 22:51N 34°42' E 135°13'0 0.0
2017-Sep-19 22:27N 34°42' E 135°13'0 0.0
2017-Sep-19 21:57N 34°42' E 135°13'0 0.0
2017-Sep-19 20:45N 34°42' E 135°13'0 0.0
2017-Sep-19 20:27N 34°42' E 135°13'0 0.0
2017-Sep-19 19:57N 34°42' E 135°13'0 0.0
2017-Sep-19 19:27N 34°42' E 135°13'0 0.0
2017-Sep-19 18:51N 34°42' E 135°13'0 0.0
2017-Sep-19 18:27N 34°42' E 135°13'0 0.0
2017-Sep-19 17:57N 34°42' E 135°13'0 0.0
2017-Sep-19 17:27N 34°42' E 135°13'0 0.0
2017-Sep-19 16:57N 34°42' E 135°13'0 0.0
2017-Sep-19 16:27N 34°42' E 135°13'0 0.0
2017-Sep-19 15:57N 34°42' E 135°13'0 0.0
2017-Sep-19 15:27N 34°42' E 135°13'0 0.0
2017-Sep-19 14:57N 34°42' E 135°13'0 0.0
2017-Sep-19 14:27N 34°42' E 135°13'0 0.0
2017-Sep-19 13:57N 34°42' E 135°13'0 0.0
2017-Sep-19 13:27N 34°42' E 135°13'0 0.0
2017-Sep-19 12:50N 34°42' E 135°13'0 0.0
2017-Sep-19 12:08N 34°42' E 135°13'0 0.0
2017-Sep-19 11:56N 34°42' E 135°13'0 0.0
2017-Sep-19 11:26N 34°42' E 135°13'0 0.0
2017-Sep-19 10:56N 34°42' E 135°13'0 0.0
2017-Sep-19 10:26N 34°42' E 135°13'0 0.0
2017-Sep-19 09:32N 34°42' E 135°13'0 0.1
2017-Sep-19 09:26N 34°42' E 135°13'0 0.0
2017-Sep-19 08:56N 34°42' E 135°13'0 0.0
2017-Sep-19 08:26N 34°42' E 135°13'0 0.0
2017-Sep-19 07:54N 34°42' E 135°13'0 0.0
2017-Sep-19 07:24N 34°42' E 135°13'0 1.0
2017-Sep-19 07:00N 34°41' E 135°13'4 7.4
2017-Sep-19 06:30N 34°38' E 135°16'611.9
2017-Sep-19 06:00N 34°36' E 135°10'713.4
2017-Sep-19 05:30N 34°37' E 135°02'  
2017-Sep-13 22:40N 33°57' E 134°54'  

Dump ship's entire track history